Weather observations for the past three days for
Perry Municipal Airport
Metric (Imperial)
Date Time (cdt) Wind (kph) Vis. (km) Weather Sky Cond. Temperature (ºC) Relative Humidity Wind Chill (°C) Heat Index (°C) Pressure Precipitation (cm)
Air Dwpt 6 hour altimeter (cm) sea level (mb) 1 hr 3 hr 6 hr
Max. Min.
02 14:35 Vrbl 7 16.09 Fair CLR 16.4 -4 25% 76.35 0.0
02 14:15 W 17 16.09 A Few Clouds FEW360 16.7 -3.4 25% 76.38 0.0
02 13:55 W 13 16.09 Fair CLR 16.8 -3 26% 76.4 0.0
02 13:35 NW 15 16.09 Fair CLR 15.8 -4.3 25% 76.43 0.0
02 13:15 NW 13 G 26 16.09 Fair CLR 15.5 -4.5 25% 76.45 0.0
02 12:55 NW 15 16.09 Fair CLR 15.3 -4.1 26% 76.45 0.0
02 12:35 Calm 16.09 Fair CLR 14.2 -4.4 27% 76.48 0.0
02 12:15 Vrbl 9 16.09 Fair CLR 14.2 -3.5 29% 76.5 0.0
02 11:55 W 13 16.09 Fair CLR 13.4 -4.2 29% 76.5 0.0
02 11:35 N 7 16.09 Fair CLR 12.5 -3.7 32% 76.53 0.0
02 11:15 W 15 16.09 Fair CLR 13 -3.6 32% 76.53 0.0
02 10:55 Vrbl 11 16.09 Fair CLR 12.2 -4.2 32% 76.53 0.0
02 10:35 Calm 16.09 Fair CLR 11.9 -3.9 33% 76.53 0.0
02 10:15 NW 13 16.09 Fair CLR 11.8 -3.8 34% 76.56 0.0
02 09:55 Calm 14.48 Fair CLR 10.9 -3.6 36% 76.56 0.0
02 09:35 Vrbl 6 14.48 Fair CLR 10.7 -3.7 36% 76.56 0.0
02 09:15 Vrbl 6 14.48 Fair CLR 10 -2 43% 76.58 0.0
02 08:55 NW 6 14.48 Fair CLR 8.7 -0.7 52% 76.58 0.0
02 08:35 NW 7 14.48 Fair CLR 7.8 -0.2 57% 7 76.58 0.0
02 08:15 Calm 14.48 Fair CLR 6.1 -0.2 64% 76.56 0.0
02 07:55 NW 7 12.87 Fair CLR 5.1 -0.5 67% 4 76.56 0.0
02 07:35 NW 7 12.87 Fair CLR 3.8 -0.2 75% 2 76.56 0.0
02 07:15 NW 6 11.27 Fair CLR 2.2 -0.7 81% 76.53 0.0
02 06:55 NW 9 9.66 Fog/Mist CLR 0.5 -1.3 88% -2 76.53 0.0
02 06:35 NW 13 9.66 Fog/Mist CLR -0.7 -2.2 90% -4 76.53 0.0
02 06:15 NW 11 9.66 Fog/Mist CLR -0.8 -2.2 90% -4 76.53 0.0
02 05:55 NW 11 11.27 Fair CLR -0.9 -2.3 90% -4 76.5 0.0
02 05:35 NW 11 11.27 Fair CLR -1 -2.4 90% -4 76.5 0.0
02 05:15 W 11 12.87 Fair CLR -0.7 -2.1 90% -4 76.48 0.0
02 04:55 NW 7 12.87 Fair CLR -0.8 -2.3 90% -3 76.48 0.0
02 04:35 NW 9 12.87 Fair CLR -0.8 -2.1 91% -4 76.48 0.0
02 04:15 NW 7 12.87 Fair CLR -0.5 -1.9 90% -3 76.48 0.0
02 03:55 NW 9 12.87 Fair CLR 0 -1.6 89% -3 76.48 0.0
02 03:35 NW 11 12.87 Fair CLR 0.4 -1.6 87% -3 76.48 0.0
02 03:15 NW 9 12.87 Fair CLR 0.1 -1.7 88% -3 76.45 0.0
02 02:55 NW 7 12.87 Fair CLR 0.6 -1.7 85% -1 76.48 0.0
02 02:35 NW 11 14.48 Fair CLR 1.4 -1.5 81% -2 76.48 0.0
02 02:15 W 11 14.48 Fair CLR 1.8 -1.4 80% -1 76.48 0.0
02 01:55 N 9 14.48 Fair CLR 2.6 -1.5 75% 0 76.48 0.0
02 01:35 N 9 14.48 Fair CLR 3.1 -1.4 73% 1 76.48 0.0
02 01:15 NW 11 14.48 Fair CLR 3.2 -1.2 73% 1 76.48 0.0
02 00:55 NW 9 14.48 Fair CLR 3.3 -1.2 73% 1 76.48 0.0
02 00:35 NW 11 14.48 Fair CLR 3.5 -1.1 72% 1 76.48 0.0
02 00:15 NW 11 14.48 Fair CLR 4.5 -1.4 66% 2 76.48 0.0
01 23:55 NW 7 14.48 Fair CLR 4.6 -1.2 66% 3 76.45 0.0
01 23:35 NW 9 14.48 Fair CLR 4.9 -1.2 65% 3 76.45 0.0
01 23:15 NW 9 14.48 Fair CLR 5.7 -1.5 60% 4 76.45 0.0
01 22:55 NW 7 14.48 Fair CLR 6.7 -1.3 57% 6 76.45 0.0
01 22:35 N 9 14.48 A Few Clouds FEW085 7.2 -0.7 58% 6 76.45 0.0
01 22:15 N 6 14.48 Mostly Cloudy BKN085 7.9 -0.9 54% 76.43 0.0
01 21:55 N 7 14.48 Overcast OVC085 8.4 -0.4 54% 8 76.43 0.0
01 21:35 N 9 16.09 Overcast OVC085 8.9 -0.1 54% 8 76.4 0.0
01 21:15 N 6 16.09 Overcast OVC085 9.2 0.3 54% 76.38 0.0
01 20:55 N 7 16.09 Overcast OVC085 9.2 -0.2 52% 8 76.35 0.0
01 20:35 N 9 16.09 Overcast OVC085 9.9 -0.7 48% 9 76.35 0.0
01 20:15 N 11 12.87 Mostly Cloudy BKN090 9.9 -0.8 48% 9 76.33 0.0
01 19:55 N 13 14.48 Mostly Cloudy BKN090 10.3 -1.4 44% 76.33 0.0
01 19:35 N 13 14.48 Mostly Cloudy BKN085 10.5 -1 45% 76.3 0.0
01 19:15 N 20 14.48 Mostly Cloudy BKN085 11.2 -1.2 42% 76.28 0.0
01 18:55 N 19 14.48 Mostly Cloudy FEW060 BKN090 11.6 -0.7 43% 76.28 0.0
01 18:35 N 22 G 31 14.48 Overcast SCT060 OVC085 12 -1 41% 76.28 0.0
01 18:15 N 13 16.09 Overcast SCT065 SCT080 OVC095 12.2 -1.1 40% 76.28 0.0
01 17:55 N 22 G 31 16.09 Overcast SCT065 OVC095 12.8 -0.9 39% 76.28 0.0
01 17:35 NW 19 16.09 Overcast BKN065 OVC090 12.8 -1.2 38% 76.28 0.0
01 17:15 N 13 16.09 Overcast BKN070 OVC095 12.8 -1.5 37% 76.25 0.0
01 16:55 N 19 16.09 Overcast BKN070 OVC085 12.7 -1.2 38% 76.25 0.0
01 16:35 N 15 16.09 Overcast OVC065 12.6 -1.1 39% 76.25 0.0
01 16:15 NE 20 16.09 Overcast BKN065 OVC085 12.3 -0.8 41% 76.25 0.0
01 15:55 N 22 16.09 Overcast FEW065 OVC090 13 -0.8 39% 76.28 0.0
01 15:35 NW 11 16.09 Mostly Cloudy SCT065 BKN090 12.8 -1.2 38% 76.28 0.0
01 15:15 N 24 G 33 16.09 Mostly Cloudy SCT065 BKN085 13.4 -1.2 37% 76.28 0.0
01 14:55 N 20 16.09 Overcast BKN065 OVC085 12.7 -1 39% 76.28 0.0
01 14:35 N 11 16.09 Overcast FEW060 OVC090 13.5 -1.1 37% 76.28 0.0
01 14:15 N 20 16.09 Overcast SCT060 OVC085 12.9 -0.9 39% 76.28 0.0
01 13:55 N 19 16.09 Overcast SCT060 OVC090 13.3 0.4 42% 76.28 0.0
01 13:35 N 19 G 31 16.09 Overcast FEW055 OVC090 13.5 -0.2 39% 76.28 0.0
01 13:15 N 17 16.09 Overcast OVC090 13.4 0.2 41% 76.28 0.0
01 12:55 N 15 16.09 Mostly Cloudy BKN085 13 0.6 43% 76.28 0.0
01 12:35 N 19 16.09 Overcast FEW048 OVC080 11.8 0.8 47% 76.28 0.0
01 12:15 N 15 16.09 Overcast SCT044 OVC080 11.7 1.9 51% 76.28 0.0
01 11:55 N 19 16.09 Overcast BKN043 BKN055 OVC075 11.8 2.2 52% 76.28 0.0
01 11:35 N 19 G 30 16.09 Mostly Cloudy BKN041 BKN065 12 2.7 53% 76.28 0.0
01 11:15 N 19 16.09 Mostly Cloudy BKN040 BKN065 11.4 2.7 55% 76.28 0.0
01 10:55 NW 17 16.09 Partly Cloudy SCT038 12 2.5 53% 76.25 0.0
01 10:35 N 11 G 30 16.09 Fair CLR 11.3 3.2 58% 76.25 0.0
01 10:15 N 13 16.09 A Few Clouds FEW060 10.9 3 58% 76.25 0.0
01 09:55 NE 13 16.09 Fair CLR 10.3 2.8 60% 76.25 0.0
01 09:35 NE 15 16.09 Fair CLR 10.2 2.5 59% 76.25 0.0
01 09:15 N 13 16.09 Fair CLR 10.1 2.1 58% 76.25 0.0
01 08:55 NW 7 16.09 Fair CLR 9.5 0.8 55% 9 76.25 0.0
01 08:35 W 11 16.09 A Few Clouds FEW080 8.3 1.2 61% 7 76.25 0.0
01 08:15 W 9 16.09 Partly Cloudy SCT080 7.3 1.6 67% 6 76.25 0.0
01 07:55 SW 9 14.48 Mostly Cloudy BKN085 6.4 2.3 75% 5 76.25 0.0
01 07:35 SW 7 14.48 Mostly Cloudy BKN090 5.6 2.3 80% 4 76.25 0.0
01 07:15 SW 6 12.87 Partly Cloudy SCT090 4 2.6 91% 76.25 0.0
01 06:55 Calm 12.87 Overcast FEW070 OVC095 3.6 2.2 91% 76.25 0.0
01 06:35 Calm 12.87 Overcast BKN070 OVC090 3.7 2.6 93% 76.25 0.0
01 06:15 Calm 14.48 Overcast BKN070 OVC095 3.2 2.2 93% 76.25 0.0
01 05:55 Calm 14.48 Mostly Cloudy BKN095 3 1.4 89% 76.23 0.0
01 05:35 Calm 16.09 Mostly Cloudy FEW060 BKN095 3.9 1.3 83% 76.25 0.0
01 05:15 Calm 16.09 Overcast BKN060 OVC090 3.3 2 91% 76.25 0.0
01 04:55 W 6 16.09 Mostly Cloudy BKN060 BKN090 2.6 1.1 90% 76.25 0.0
01 04:35 Calm 16.09 Mostly Cloudy FEW070 BKN090 3 1 87% 76.25 0.0
01 04:15 Calm 16.09 Partly Cloudy SCT070 SCT085 3 1.6 91% 76.25 0.0
01 03:55 Calm 16.09 Mostly Cloudy SCT060 BKN085 4.4 1.4 81% 76.25 0.0
01 03:35 N 6 16.09 Overcast BKN060 OVC075 4.9 1.5 79% 76.25 0.0
01 03:15 N 13 16.09 Overcast BKN065 OVC080 5.2 1.8 79% 3 76.25 0.0
01 02:55 W 11 16.09 Overcast BKN070 OVC085 4.9 1.2 77% 3 76.25 0.0
01 02:35 W 9 16.09 Overcast FEW060 OVC080 4.6 1.3 79% 3 76.25 0.0
01 02:15 W 11 16.09 Overcast BKN065 OVC085 4.4 1.2 80% 2 76.28 0.0
01 01:55 W 13 16.09 Overcast SCT075 OVC090 3.8 1.2 83% 1 76.28 0.0
01 01:35 W 11 16.09 Overcast OVC085 3.9 1.2 83% 1 76.3 0.0
01 01:15 SW 9 16.09 Mostly Cloudy BKN090 BKN120 2.8 0.6 86% 1 76.3 0.0
01 00:55 SW 15 16.09 A Few Clouds FEW100 3.4 0.2 80% 0 76.3 0.0
01 00:35 SW 13 16.09 Fair CLR 3.4 0.2 80% 0 76.3 0.0
30 23:55 Calm 16.09 Fair CLR 3 -0.2 80% 76.3 0.0
30 23:35 Calm 16.09 Fair CLR 3.5 -0.1 78% 76.3 0.0
30 23:15 Calm 16.09 Fair CLR 4.8 -0.7 68% 76.33 0.0
30 22:55 W 6 14.48 Fair CLR 3.5 -0.1 78% 76.33 0.0
30 22:15 W 11 16.09 Fair CLR 3.6 -0.5 75% 1 76.35 0.0
30 21:55 W 11 16.09 Fair CLR 4.1 -0.6 72% 2 76.33 0.0
30 21:35 W 9 16.09 Fair CLR 4.5 -1 68% 3 76.33 0.0
30 21:15 NW 9 16.09 Fair CLR 6.9 -1.9 54% 5 76.3 0.0
30 20:55 NW 9 16.09 Fair CLR 7.1 -1.7 54% 6 76.3 0.0
30 20:35 NW 9 16.09 A Few Clouds FEW095 7.9 -2 50% 7 76.28 0.0
30 20:15 N 11 16.09 Mostly Cloudy BKN095 9.2 -2.4 44% 8 76.28 0.0
30 19:55 N 19 16.09 Overcast OVC090 10.1 -2.2 42% 76.28 0.0
30 19:35 N 17 16.09 Overcast OVC090 10.6 -2.3 41% 76.28 0.0
30 19:15 N 22 16.09 Overcast FEW080 OVC095 11 -2.5 39% 76.25 0.0
30 18:35 N 24 16.09 Overcast OVC085 11.2 -2.5 39% 76.25 0.0
30 18:15 N 24 16.09 Overcast FEW070 OVC085 11.3 -2.7 38% 76.25 0.0
30 17:55 N 28 G 39 16.09 Mostly Cloudy SCT075 BKN085 12 -2.6 36% 76.23 0.0
30 17:35 N 19 16.09 Mostly Cloudy BKN080 12.2 -3.2 34% 76.23 0.0
30 17:15 N 24 G 39 16.09 Overcast OVC080 12.1 -3 35% 76.23 0.0
30 16:55 N 30 G 39 16.09 Mostly Cloudy BKN080 12.8 -3.4 32% 76.23 0.0
30 16:35 N 26 G 46 16.09 Mostly Cloudy BKN075 12.7 -2.7 34% 76.23 0.0
30 16:15 N 24 16.09 Mostly Cloudy BKN075 13.2 -3.3 32% 76.2 0.0
30 15:55 N 30 G 43 16.09 Mostly Cloudy BKN070 12.9 -2.9 33% 76.23 0.0
30 15:35 N 28 16.09 Mostly Cloudy BKN065 13.3 -1.4 36% 76.23 0.0
30 15:15 N 26 16.09 Mostly Cloudy BKN060 12 -0.8 41% 76.25 0.0
30 14:55 NW 31 G 41 16.09 Mostly Cloudy SCT049 BKN060 12.9 -0.9 39% 76.25 0.0
30 14:35 NW 26 G 37 16.09 Mostly Cloudy BKN047 BKN095 13.3 2.5 48% 76.25 0.0
30 14:15 NW 24 G 35 16.09 Mostly Cloudy FEW037 BKN070 BKN095 12 2.4 52% 76.28 0.0
30 13:55 NW 24 G 33 16.09 Overcast OVC070 10.8 3 59% 76.3 0.0
30 13:35 N 13 16.09 Overcast OVC065 9.5 3.3 66% 8 76.33 0.0
30 13:15 NW 20 16.09 Overcast OVC060 8.6 3 68% 6 76.35 0.0
30 12:55 NW 17 16.09 Overcast OVC050 8.3 2.9 69% 6 76.35 0.0
30 12:35 N 19 16.09 Overcast OVC050 8.3 2.8 69% 6 76.38 0.0
30 12:15 N 22 16.09 Overcast OVC045 8.1 2.4 68% 5 76.35 0.0
30 11:55 N 28 16.09 Overcast BKN043 OVC060 8.3 2.2 66% 5 76.35 0.0
30 11:35 N 28 16.09 Overcast BKN042 OVC060 10 3 62% 7 76.33 0.0
30 11:15 N 20 16.09 Overcast OVC040 9.7 3.2 64% 7 76.35 0.0
30 10:55 N 26 16.09 Overcast BKN040 OVC060 9.2 2.3 62% 6 76.33 0.0
30 10:35 N 26 16.09 Overcast BKN040 OVC060 9.2 1.9 61% 6 76.3 0.0
30 10:15 NE 26 16.09 Overcast SCT042 BKN055 OVC095 8.8 1.8 62% 6 76.3 0.0
30 09:55 N 30 16.09 Overcast FEW046 SCT060 OVC095 8.9 2.5 65% 5 76.28 0.0
30 09:35 N 26 16.09 Overcast BKN050 OVC100 9.2 3.2 66% 6 76.25 0.0
30 09:15 N 22 16.09 Overcast OVC050 9.1 4.3 72% 6 76.23 0.0
30 08:55 N 20 16.09 Overcast OVC050 8.9 5.3 78% 6 76.23 0.0
30 08:35 N 17 16.09 Overcast BKN049 OVC100 9.5 8.4 93% 7 76.2 0.0
30 08:15 N 6 14.48 Light Rain SCT048 BKN055 BKN075 OVC100 9.1 8.1 94% 76.17 0.0
30 07:55 Calm 12.87 Light Rain OVC047 8.4 8 97% 76.2 0.0
30 07:35 Calm 11.27 Light Rain OVC048 8.1 7.8 98% 76.23 0.0 0.05
30 07:15 W 7 9.66 Light Rain Fog/Mist SCT044 OVC055 7.9 7.8 99% 7 76.23 0.0 0.03
30 06:55 W 9 8.05 Light Rain Fog/Mist BKN043 OVC055 7.8 7.4 97% 6 76.23 0.0
30 06:35 W 11 9.66 Light Rain Fog/Mist BKN046 OVC060 8.1 6.8 92% 6 76.23 0.0
30 06:15 W 11 11.27 Light Rain OVC050 8.1 6.4 89% 6 76.23 0.0
30 05:55 Calm 16.09 Overcast BKN055 BKN085 OVC110 8.7 4.8 77% 76.23 0.0
30 05:35 Calm 14.48 Overcast SCT045 BKN055 OVC110 8.3 5.6 83% 76.2 0.0
30 05:15 SW 11 12.87 Light Rain BKN049 OVC060 8.3 7.1 92% 7 76.2 0.0
30 04:55 Calm 16.09 Overcast BKN050 OVC070 8.3 5.5 83% 76.2 0.0
30 04:35 E 6 16.09 Overcast OVC075 8 5.6 85% 76.23 0.0
30 04:15 NE 7 16.09 Overcast FEW055 OVC070 8.2 5.5 83% 7 76.25 0.0
30 03:55 W 7 14.48 Overcast OVC060 8.8 4.4 74% 8 76.28 0.0
30 03:35 SW 15 16.09 Overcast BKN070 OVC090 8.9 6.2 83% 7 76.28 0.0
30 03:15 S 9 16.09 Overcast BKN065 OVC090 9.2 6.3 82% 8 76.25 0.0
30 02:55 W 11 16.09 Overcast OVC065 8.9 6.8 87% 7 76.28 0.0
30 02:35 W 13 14.48 Light Rain OVC065 9 6.7 86% 7 76.25 0.0
30 02:15 W 20 9.66 Light Rain FEW003 BKN046 OVC070 9.9 5.2 73% 7 76.25 0.0
30 01:55 SW 15 16.09 Overcast BKN070 OVC090 8.7 2.3 64% 7 76.28 0.0
30 01:35 SW 9 16.09 Mostly Cloudy SCT070 BKN090 BKN120 7.1 3.3 77% 6 76.28 0.0
30 01:15 S 9 16.09 A Few Clouds FEW090 8.3 1.5 63% 7 76.3 0.0
30 00:55 S 9 16.09 A Few Clouds FEW095 8.4 1.4 62% 7 76.3 0.0
30 00:35 S 6 16.09 Mostly Cloudy BKN090 8.1 2.3 67% 76.3 0.0
30 00:15 SW 11 16.09 Mostly Cloudy BKN090 7.8 2.2 68% 6 76.3 0.0
29 23:55 SW 11 16.09 Mostly Cloudy BKN085 8 2.2 67% 6 76.33 0.0
29 23:35 SW 11 16.09 Mostly Cloudy BKN090 BKN100 8.4 2.4 66% 7 76.33 0.0
29 23:15 SW 11 16.09 Overcast OVC100 8.7 2.5 65% 7 76.33 0.0
29 22:55 SW 11 16.09 Overcast OVC100 8.1 2.5 68% 6 76.35 0.0
29 22:35 S 7 16.09 Partly Cloudy SCT110 8 1.6 64% 7 76.35 0.0
29 22:15 Calm 16.09 Partly Cloudy FEW110 SCT140 8.6 0.6 58% 76.35 0.0
29 21:55 Calm 16.09 Mostly Cloudy BKN140 8 1.2 63% 76.35 0.0
29 21:35 Calm 16.09 Partly Cloudy SCT150 9.7 0.5 53% 76.33 0.0
29 21:15 Calm 16.09 A Few Clouds FEW150 9.2 0.6 55% 76.33 0.0
29 20:55 Calm 14.48 Fair CLR 9.9 1.5 56% 76.28 0.0
29 20:35 Calm 16.09 A Few Clouds FEW090 11.6 -1 42% 76.28 0.0
29 20:15 Calm 16.09 A Few Clouds FEW090 11.5 -0.5 44% 76.28 0.0
29 19:55 N 6 16.09 A Few Clouds FEW090 12.1 -0.3 43% 76.28 0.0
29 19:35 N 7 16.09 A Few Clouds FEW085 12.4 0.1 43% 76.28 0.0
29 19:15 N 11 16.09 Mostly Cloudy BKN085 13.5 -1.4 36% 76.28 0.0
29 18:55 N 7 16.09 Overcast OVC085 14 -1.2 35% 76.3 0.0
29 18:35 NW 11 16.09 Overcast OVC085 15 -2.5 30% 76.3 0.0
29 18:15 NW 13 16.09 Mostly Cloudy BKN085 14.9 -2.3 31% 76.3 0.0
29 17:55 NW 15 16.09 A Few Clouds FEW085 14.7 -1.7 33% 76.3 0.0
29 17:15 NW 15 16.09 Partly Cloudy SCT080 15.1 -1.7 32% 76.3 0.0
29 16:55 NW 24 16.09 Partly Cloudy SCT075 15.7 -2.3 29% 76.3 0.0
29 16:35 NW 28 G 35 16.09 Partly Cloudy SCT070 15.9 -1.2 31% 76.28 0.0
29 16:15 N 13 16.09 Mostly Cloudy BKN065 14.2 -0.5 37% 76.3 0.0
29 15:55 NW 17 16.09 Mostly Cloudy BKN065 15 -1.2 33% 76.33 0.0
29 15:35 N 17 16.09 Mostly Cloudy BKN065 14.9 0.8 39% 76.35 0.0
29 15:15 NW 17 16.09 Partly Cloudy SCT070 14.8 -0.4 36% 76.38 0.0
Date Time (cdt) Wind (kph) Vis. (km) Weather Sky Cond. Air Dwpt Max. Min. Relative Humidity Wind Chill (°C) Heat Index (°C) altimeter (cm) sea level (mb) 1 hr 3 hr 6 hr
6 hour
Temperature (ºC) Pressure Precipitation (cm)